createdAt,value
2022-09-15T00:00:07.835Z,407.55
2022-09-15T00:02:35.257Z,467.65
2022-09-15T00:05:02.943Z,463.15
2022-09-15T00:07:31.262Z,478.95
2022-09-15T00:09:58.440Z,462.00
2022-09-15T00:12:25.977Z,454.70
2022-09-15T00:14:53.353Z,465.23
2022-09-15T00:17:20.724Z,446.30
2022-09-15T00:19:47.866Z,433.50
2022-09-15T00:22:15.374Z,447.95
2022-09-15T00:24:42.693Z,439.33
2022-09-15T00:27:09.811Z,432.45
2022-09-15T00:29:37.031Z,448.67
2022-09-15T00:32:04.544Z,434.15
2022-09-15T00:34:31.665Z,433.63
2022-09-15T00:36:58.827Z,442.03
2022-09-15T00:39:26.203Z,460.95
2022-09-15T00:41:54.328Z,466.23
2022-09-15T00:44:24.394Z,469.63
2022-09-15T00:47:15.343Z,481.40
2022-09-15T00:49:42.319Z,482.02
2022-09-15T00:52:25.370Z,473.10
2022-09-15T00:55:04.003Z,450.65
2022-09-15T00:57:42.370Z,503.77
2022-09-15T01:00:13.578Z,460.02
2022-09-15T01:02:43.134Z,489.77
2022-09-15T01:05:13.395Z,474.65
2022-09-15T01:07:40.490Z,483.15
2022-09-15T01:10:19.189Z,483.45
2022-09-15T01:12:46.157Z,471.92
2022-09-15T01:15:13.610Z,476.80
2022-09-15T01:17:40.881Z,508.08
2022-09-15T01:20:44.855Z,492.40
2022-09-15T01:23:44.710Z,482.20
2022-09-15T01:26:11.884Z,499.25
2022-09-15T01:29:06.211Z,514.38
2022-09-15T01:31:36.244Z,490.08
2022-09-15T01:34:06.510Z,505.85
2022-09-15T01:36:34.138Z,513.97
2022-09-15T01:39:19.003Z,493.52
2022-09-15T01:42:02.006Z,511.10
2022-09-15T01:44:38.180Z,508.93
2022-09-15T01:47:10.090Z,521.00
2022-09-15T01:50:01.407Z,523.95
2022-09-15T01:52:29.705Z,574.05
2022-09-15T01:55:00.235Z,610.33
2022-09-15T01:57:27.995Z,609.22
2022-09-15T01:59:55.934Z,623.92
2022-09-15T02:02:42.533Z,617.15
2022-09-15T02:05:20.607Z,634.20
2022-09-15T02:08:02.065Z,615.80
2022-09-15T02:10:41.041Z,611.95
2022-09-15T02:13:17.083Z,611.85
2022-09-15T02:15:52.226Z,626.17
2022-09-15T02:18:40.717Z,628.08
2022-09-15T02:21:23.989Z,606.25
2022-09-15T02:23:54.993Z,603.00
2022-09-15T02:26:24.432Z,613.17
2022-09-15T02:28:54.214Z,613.25
2022-09-15T02:31:23.420Z,632.40
2022-09-15T02:33:57.577Z,620.10
2022-09-15T02:36:25.987Z,648.33
2022-09-15T02:38:58.107Z,649.67
2022-09-15T02:41:25.261Z,634.27
2022-09-15T02:43:52.540Z,645.80
2022-09-15T02:46:21.491Z,619.88
2022-09-15T02:48:48.868Z,631.33
2022-09-15T02:51:17.307Z,622.17
2022-09-15T02:53:46.176Z,609.50
2022-09-15T02:56:13.629Z,535.67
2022-09-15T02:58:40.830Z,518.15
2022-09-15T03:01:11.083Z,546.20
2022-09-15T03:03:42.787Z,542.37
2022-09-15T03:06:16.749Z,545.08
2022-09-15T03:08:52.175Z,537.90
2022-09-15T03:11:20.827Z,548.63
2022-09-15T03:13:48.231Z,571.20
2022-09-15T03:16:16.632Z,559.03
2022-09-15T03:18:44.086Z,565.08
2022-09-15T03:21:13.516Z,544.63
2022-09-15T03:23:41.080Z,543.20
2022-09-15T03:26:09.432Z,562.90
2022-09-15T03:28:37.315Z,524.65
2022-09-15T03:31:04.825Z,540.57
2022-09-15T03:33:32.025Z,532.67
2022-09-15T03:35:59.115Z,545.58
2022-09-15T03:38:27.363Z,550.42
2022-09-15T03:41:13.081Z,548.97
2022-09-15T03:43:40.512Z,543.27
2022-09-15T03:46:09.955Z,583.60
2022-09-15T03:48:37.301Z,650.25
2022-09-15T03:51:05.611Z,653.40
2022-09-15T03:53:34.269Z,625.40
2022-09-15T03:56:10.118Z,652.50
2022-09-15T03:58:37.424Z,634.17
2022-09-15T04:01:05.906Z,650.50
2022-09-15T04:03:32.760Z,659.22
2022-09-15T04:05:59.957Z,688.63
2022-09-15T04:08:27.066Z,680.25
2022-09-15T04:10:54.997Z,674.00
2022-09-15T04:13:26.699Z,685.08
2022-09-15T04:16:02.922Z,679.58
2022-09-15T04:18:30.720Z,685.83
2022-09-15T04:21:01.938Z,673.78
2022-09-15T04:23:29.128Z,674.75
2022-09-15T04:25:58.134Z,707.78
2022-09-15T04:28:26.231Z,678.53
2022-09-15T04:30:54.551Z,675.85
2022-09-15T04:33:22.357Z,698.60
2022-09-15T04:35:49.547Z,701.78
2022-09-15T04:38:16.754Z,707.97
2022-09-15T04:40:43.982Z,680.03
2022-09-15T04:43:11.094Z,691.10
2022-09-15T04:45:38.279Z,684.67
2022-09-15T04:48:05.534Z,680.80
2022-09-15T04:50:33.767Z,687.60
2022-09-15T04:53:02.812Z,668.05
2022-09-15T04:55:32.231Z,678.05
2022-09-15T04:57:59.419Z,662.60
2022-09-15T05:00:27.558Z,667.10
2022-09-15T05:02:54.757Z,695.50
2022-09-15T05:05:22.189Z,673.75
2022-09-15T05:07:49.423Z,681.15
2022-09-15T05:10:16.603Z,666.30
2022-09-15T05:12:43.796Z,688.17
2022-09-15T05:15:11.261Z,695.30
2022-09-15T05:17:38.435Z,602.77
2022-09-15T05:20:05.911Z,573.28
2022-09-15T05:22:33.094Z,587.20
2022-09-15T05:25:00.211Z,544.10
2022-09-15T05:27:27.406Z,570.47
2022-09-15T05:30:16.189Z,605.63
2022-09-15T05:32:41.939Z,585.20
2022-09-15T05:35:09.122Z,579.22
2022-09-15T05:37:36.329Z,582.83
2022-09-15T05:40:08.287Z,554.10
2022-09-15T05:42:36.118Z,590.75
2022-09-15T05:45:03.309Z,575.40
2022-09-15T05:47:30.521Z,586.35
2022-09-15T05:49:57.824Z,578.92
2022-09-15T05:52:26.078Z,600.55
2022-09-15T05:54:58.322Z,600.67
2022-09-15T05:57:26.436Z,580.42
2022-09-15T05:59:53.626Z,597.65
2022-09-15T06:02:20.914Z,578.08
2022-09-15T06:04:50.236Z,616.00
2022-09-15T06:07:17.392Z,615.70
2022-09-15T06:09:45.137Z,591.83
2022-09-15T06:12:12.263Z,604.63
2022-09-15T06:14:39.505Z,575.85
2022-09-15T06:17:06.641Z,624.78
2022-09-15T06:19:33.884Z,632.05
2022-09-15T06:22:01.590Z,625.25
2022-09-15T06:24:28.923Z,635.00
2022-09-15T06:26:56.054Z,608.20
2022-09-15T06:29:23.190Z,633.78
2022-09-15T06:31:50.467Z,626.50
2022-09-15T06:34:17.978Z,639.28
2022-09-15T06:36:45.211Z,630.00
2022-09-15T06:39:12.375Z,641.40
2022-09-15T06:42:00.798Z,626.85
2022-09-15T06:44:29.031Z,611.75
2022-09-15T06:46:56.154Z,630.77
2022-09-15T06:49:25.194Z,603.97
2022-09-15T06:51:52.660Z,608.03
2022-09-15T06:54:19.894Z,602.22
2022-09-15T06:56:47.328Z,612.13
2022-09-15T06:59:16.007Z,604.20
2022-09-15T07:01:43.367Z,620.65
2022-09-15T07:04:10.933Z,613.40
2022-09-15T07:06:39.221Z,624.72
2022-09-15T07:09:07.248Z,629.53
2022-09-15T07:11:34.593Z,645.53
2022-09-15T07:14:01.818Z,626.10
2022-09-15T07:16:29.333Z,622.08
2022-09-15T07:18:57.534Z,638.87
2022-09-15T07:21:24.778Z,637.05
2022-09-15T07:23:53.336Z,659.55
2022-09-15T07:26:20.541Z,633.17
2022-09-15T07:28:51.516Z,647.92
2022-09-15T07:31:21.056Z,637.72
2022-09-15T07:33:48.466Z,677.83
2022-09-15T07:36:15.905Z,693.90
2022-09-15T07:38:46.720Z,692.08
2022-09-15T07:41:16.270Z,667.55
2022-09-15T07:43:47.740Z,701.80
2022-09-15T07:46:15.772Z,699.43
2022-09-15T07:48:45.442Z,698.47
2022-09-15T07:51:12.786Z,667.92
2022-09-15T07:53:40.097Z,661.83
2022-09-15T07:56:07.331Z,625.72
2022-09-15T07:58:35.091Z,626.25
2022-09-15T08:01:07.533Z,614.57
2022-09-15T08:03:35.780Z,636.90
2022-09-15T08:06:03.436Z,643.80
2022-09-15T08:08:31.086Z,662.28
2022-09-15T08:10:58.459Z,642.55
2022-09-15T08:13:25.914Z,614.00
2022-09-15T08:15:53.327Z,632.75
2022-09-15T08:18:20.601Z,645.13
2022-09-15T08:20:47.874Z,641.00
2022-09-15T08:23:15.251Z,588.45
2022-09-15T08:25:42.391Z,607.85
2022-09-15T08:28:09.840Z,632.92
2022-09-15T08:30:37.230Z,634.78
2022-09-15T08:33:04.687Z,651.92
2022-09-15T08:35:32.857Z,622.38
2022-09-15T08:37:59.995Z,616.60
2022-09-15T08:40:36.434Z,606.97
2022-09-15T08:43:09.792Z,635.40
2022-09-15T08:45:47.597Z,599.90
2022-09-15T08:48:15.893Z,616.65
2022-09-15T08:50:47.259Z,608.05
2022-09-15T08:53:31.227Z,620.80
2022-09-15T08:56:09.343Z,604.20
2022-09-15T08:58:37.683Z,643.17
2022-09-15T09:01:09.938Z,627.60
2022-09-15T09:03:40.175Z,638.53
2022-09-15T09:06:07.455Z,627.03
2022-09-15T09:09:08.847Z,625.35
2022-09-15T09:11:45.257Z,596.73
2022-09-15T09:14:21.740Z,625.88
2022-09-15T09:16:52.077Z,615.67
2022-09-15T09:19:28.022Z,619.22
2022-09-15T09:22:03.670Z,623.08
2022-09-15T09:24:57.360Z,624.35
2022-09-15T09:27:30.498Z,640.55
2022-09-15T09:30:13.015Z,711.90
2022-09-15T09:32:53.980Z,755.67
2022-09-15T09:35:36.041Z,765.17
2022-09-15T09:38:03.215Z,759.03
2022-09-15T09:40:32.712Z,875.83
2022-09-15T09:43:01.493Z,919.17
2022-09-15T09:45:28.679Z,795.70
2022-09-15T09:48:01.830Z,826.15
2022-09-15T09:50:33.447Z,857.83
2022-09-15T09:53:00.839Z,832.47
2022-09-15T09:55:28.806Z,812.67
2022-09-15T09:58:11.520Z,812.58
2022-09-15T10:00:42.404Z,818.75
2022-09-15T10:03:16.827Z,796.88
2022-09-15T10:05:44.418Z,817.28
2022-09-15T10:08:19.291Z,841.83
2022-09-15T10:10:54.535Z,827.13
2022-09-15T10:13:22.313Z,810.78
2022-09-15T10:16:00.295Z,805.55
2022-09-15T10:18:31.713Z,801.87
2022-09-15T10:20:59.555Z,804.13
2022-09-15T10:23:29.416Z,830.93
2022-09-15T10:26:00.143Z,788.08
2022-09-15T10:28:28.208Z,806.67
2022-09-15T10:31:07.228Z,795.93
2022-09-15T10:33:35.869Z,805.97
2022-09-15T10:36:13.293Z,804.55
2022-09-15T10:38:45.470Z,812.00
2022-09-15T10:41:26.401Z,787.78
2022-09-15T10:44:02.854Z,798.03
2022-09-15T10:46:48.510Z,819.63
2022-09-15T10:49:18.723Z,825.55
2022-09-15T10:51:46.404Z,807.50
2022-09-15T10:54:19.647Z,848.53
2022-09-15T10:56:55.095Z,828.97
2022-09-15T10:59:22.374Z,853.78
2022-09-15T11:02:35.933Z,855.65
2022-09-15T11:05:18.951Z,855.13
2022-09-15T11:08:20.881Z,874.53
2022-09-15T11:10:52.063Z,834.00
2022-09-15T11:13:25.727Z,755.97
2022-09-15T11:15:56.587Z,775.50
2022-09-15T11:18:39.190Z,759.35
2022-09-15T11:21:15.339Z,760.17
2022-09-15T11:23:42.608Z,767.13
2022-09-15T11:26:13.542Z,766.67
2022-09-15T11:28:44.279Z,768.08
2022-09-15T11:31:29.169Z,747.67
2022-09-15T11:33:59.263Z,784.35
2022-09-15T11:36:32.936Z,761.50
2022-09-15T11:39:13.433Z,787.20
2022-09-15T11:41:44.304Z,807.42
2022-09-15T11:44:39.044Z,787.25
2022-09-15T11:47:06.469Z,878.42
2022-09-15T11:49:33.826Z,897.45
2022-09-15T11:52:11.929Z,937.67
2022-09-15T11:54:44.178Z,870.35
2022-09-15T11:57:20.525Z,857.78
2022-09-15T11:59:52.614Z,866.97
2022-09-15T12:02:25.832Z,849.45
2022-09-15T12:05:12.616Z,887.33
2022-09-15T12:07:50.172Z,920.13
2022-09-15T12:10:33.870Z,984.42
2022-09-15T12:13:01.741Z,927.65
2022-09-15T12:15:29.430Z,931.17
2022-09-15T12:18:34.530Z,962.37
2022-09-15T12:21:07.625Z,975.75
2022-09-15T12:23:44.266Z,933.10
2022-09-15T12:26:20.079Z,927.83
2022-09-15T12:28:47.271Z,873.60
2022-09-15T12:31:23.552Z,883.97
2022-09-15T12:34:01.778Z,880.05
2022-09-15T12:36:36.609Z,828.92
2022-09-15T12:39:19.395Z,850.72
2022-09-15T12:41:54.083Z,878.92
2022-09-15T12:44:27.673Z,849.45
2022-09-15T12:46:56.030Z,1130.72
2022-09-15T12:49:27.467Z,997.67
2022-09-15T12:51:57.122Z,917.28
2022-09-15T12:54:27.160Z,947.22
2022-09-15T12:56:55.682Z,939.88
2022-09-15T12:59:25.809Z,937.20
2022-09-15T13:01:54.288Z,963.90
2022-09-15T13:04:54.755Z,956.13
2022-09-15T13:07:30.878Z,923.90
2022-09-15T13:10:27.715Z,922.17
2022-09-15T13:13:05.596Z,914.40
2022-09-15T13:15:34.288Z,907.75
2022-09-15T13:18:05.531Z,893.13
2022-09-15T13:20:34.973Z,899.97
2022-09-15T13:23:02.443Z,867.03
2022-09-15T13:25:30.586Z,834.90
2022-09-15T13:28:02.271Z,880.90
2022-09-15T13:30:33.699Z,860.13
2022-09-15T13:33:07.983Z,898.20
2022-09-15T13:35:44.157Z,868.83
2022-09-15T13:38:42.693Z,891.30
2022-09-15T13:41:25.162Z,874.35
2022-09-15T13:44:04.359Z,831.60
2022-09-15T13:47:00.488Z,853.00
2022-09-15T13:49:32.778Z,894.35
2022-09-15T13:52:08.898Z,879.15
2022-09-15T13:54:36.202Z,872.95
2022-09-15T13:57:03.577Z,854.85
2022-09-15T13:59:32.841Z,869.97
2022-09-15T14:02:00.709Z,903.38
2022-09-15T14:04:31.880Z,849.45
2022-09-15T14:07:01.427Z,888.55
2022-09-15T14:09:31.117Z,892.50
2022-09-15T14:12:03.372Z,867.47
2022-09-15T14:14:36.385Z,873.22
2022-09-15T14:17:04.111Z,891.87
2022-09-15T14:19:36.233Z,854.05
2022-09-15T14:22:17.969Z,882.53
2022-09-15T14:24:45.173Z,861.25
2022-09-15T14:27:12.975Z,855.95
2022-09-15T14:29:41.982Z,874.40
2022-09-15T14:32:17.548Z,851.00
2022-09-15T14:34:45.476Z,802.67
2022-09-15T14:37:12.619Z,811.97
2022-09-15T14:39:40.352Z,794.77
2022-09-15T14:42:22.618Z,810.25
2022-09-15T14:47:43.266Z,820.08
2022-09-15T14:50:19.297Z,792.05
2022-09-15T14:52:46.547Z,812.72
2022-09-15T14:55:15.686Z,823.65
2022-09-15T14:57:45.004Z,844.20
2022-09-15T15:00:17.487Z,831.45
2022-09-15T15:02:48.222Z,833.58
2022-09-15T15:05:18.558Z,803.50
2022-09-15T15:07:46.295Z,826.85
2022-09-15T15:10:13.458Z,807.08
2022-09-15T15:12:45.503Z,839.72
2022-09-15T15:15:16.042Z,825.83
2022-09-15T15:17:49.613Z,814.03
2022-09-15T15:20:22.764Z,804.85
2022-09-15T15:23:11.597Z,781.00
2022-09-15T15:25:39.169Z,756.65
2022-09-15T15:28:06.933Z,778.17
2022-09-15T15:30:34.143Z,791.95
2022-09-15T15:33:01.234Z,791.80
2022-09-15T15:35:28.555Z,784.87
2022-09-15T15:38:03.502Z,819.13
2022-09-15T15:40:31.031Z,760.77
2022-09-15T15:43:05.913Z,794.80
2022-09-15T15:45:35.298Z,806.10
2022-09-15T15:48:03.775Z,828.05
2022-09-15T15:50:32.514Z,808.27
2022-09-15T15:53:00.789Z,837.78
2022-09-15T15:55:41.492Z,794.00
2022-09-15T15:58:13.454Z,823.07
2022-09-15T16:00:54.649Z,820.97
2022-09-15T16:03:22.054Z,808.47
2022-09-15T16:05:51.419Z,812.50
2022-09-15T16:08:26.077Z,820.83
2022-09-15T16:10:53.970Z,828.90
2022-09-15T16:13:21.746Z,857.20
2022-09-15T16:15:49.285Z,819.33
2022-09-15T16:18:16.785Z,850.47
2022-09-15T16:20:44.191Z,842.13
2022-09-15T16:23:15.571Z,865.38
2022-09-15T16:25:47.362Z,826.53
2022-09-15T16:28:14.841Z,852.97
2022-09-15T16:30:41.991Z,849.67
2022-09-15T16:33:13.017Z,866.17
2022-09-15T16:35:43.150Z,859.67
2022-09-15T16:38:10.803Z,846.35
2022-09-15T16:40:38.223Z,872.05
2022-09-15T16:43:09.808Z,871.17
2022-09-15T16:45:40.624Z,890.45
2022-09-15T16:48:09.122Z,866.30
2022-09-15T16:50:39.867Z,852.28
2022-09-15T16:53:21.328Z,858.67
2022-09-15T16:55:52.374Z,858.75
2022-09-15T16:58:22.073Z,877.58
2022-09-15T17:00:51.520Z,869.50
2022-09-15T17:03:19.837Z,870.30
2022-09-15T17:05:49.759Z,852.28
2022-09-15T17:08:19.122Z,831.70
2022-09-15T17:10:46.655Z,874.33
2022-09-15T17:13:19.843Z,884.87
2022-09-15T17:15:47.296Z,851.63
2022-09-15T17:18:15.541Z,852.85
2022-09-15T17:20:43.988Z,866.13
2022-09-15T17:23:17.323Z,843.73
2022-09-15T17:25:49.001Z,855.63
2022-09-15T17:28:16.164Z,861.60
2022-09-15T17:30:43.631Z,761.70
2022-09-15T17:33:15.054Z,771.75
2022-09-15T17:35:43.182Z,739.25
2022-09-15T17:38:10.320Z,738.25
2022-09-15T17:40:37.648Z,712.58
2022-09-15T17:43:05.153Z,710.15
2022-09-15T17:45:36.506Z,700.08
2022-09-15T17:48:05.139Z,711.37
2022-09-15T17:50:33.875Z,696.88
2022-09-15T17:53:01.282Z,666.40
2022-09-15T17:55:29.878Z,676.35
2022-09-15T17:57:59.821Z,694.95
2022-09-15T18:00:28.733Z,713.75
2022-09-15T18:02:57.747Z,711.17
2022-09-15T18:05:29.744Z,691.47
2022-09-15T18:07:57.776Z,717.57
2022-09-15T18:10:25.530Z,741.90
2022-09-15T18:12:55.562Z,764.97
2022-09-15T18:15:26.014Z,757.63
2022-09-15T18:17:57.526Z,784.53
2022-09-15T18:20:27.718Z,752.00
2022-09-15T18:22:55.495Z,763.67
2022-09-15T18:25:31.622Z,746.85
2022-09-15T18:27:59.005Z,732.13
2022-09-15T18:30:28.403Z,757.40
2022-09-15T18:32:55.624Z,742.00
2022-09-15T18:35:23.420Z,767.80
2022-09-15T18:37:55.345Z,762.88
2022-09-15T18:40:22.966Z,748.03
2022-09-15T18:42:50.274Z,763.85
2022-09-15T18:45:18.277Z,781.93
2022-09-15T18:47:49.100Z,809.20
2022-09-15T18:50:17.098Z,782.83
2022-09-15T18:52:44.320Z,805.08
2022-09-15T18:55:15.025Z,782.03
2022-09-15T18:57:42.745Z,805.50
2022-09-15T19:00:13.459Z,757.45
2022-09-15T19:02:40.964Z,782.83
2022-09-15T19:05:11.330Z,760.90
2022-09-15T19:07:38.992Z,773.10
2022-09-15T19:10:07.561Z,791.92
2022-09-15T19:12:38.022Z,785.17
2022-09-15T19:15:10.787Z,788.47
2022-09-15T19:17:39.355Z,805.40
2022-09-15T19:20:07.987Z,804.78
2022-09-15T19:22:35.381Z,791.03
2022-09-15T19:25:02.711Z,809.28
2022-09-15T19:27:29.935Z,808.30
2022-09-15T19:29:57.166Z,797.63
2022-09-15T19:32:24.495Z,792.03
2022-09-15T19:34:51.704Z,817.85
2022-09-15T19:37:19.989Z,787.13
2022-09-15T19:39:47.700Z,811.63
2022-09-15T19:44:43.979Z,807.15
2022-09-15T19:47:11.206Z,740.90
2022-09-15T19:49:38.550Z,814.15
2022-09-15T19:52:07.226Z,778.92
2022-09-15T19:54:34.923Z,893.00
2022-09-15T19:57:02.367Z,884.00
2022-09-15T19:59:31.702Z,885.30
2022-09-15T20:01:59.980Z,903.03
2022-09-15T20:04:27.522Z,895.95
2022-09-15T20:06:55.806Z,902.30
2022-09-15T20:09:23.240Z,882.67
2022-09-15T20:11:50.465Z,879.58
2022-09-15T20:14:17.719Z,900.08
2022-09-15T20:16:44.983Z,899.08
2022-09-15T20:19:12.235Z,897.23
2022-09-15T20:21:55.559Z,840.85
2022-09-15T20:24:23.698Z,842.45
2022-09-15T20:26:50.997Z,878.33
2022-09-15T20:29:18.409Z,855.83
2022-09-15T20:31:45.546Z,864.08
2022-09-15T20:34:12.772Z,861.63
2022-09-15T20:36:40.273Z,865.72
2022-09-15T20:39:10.781Z,858.00
2022-09-15T20:41:38.099Z,859.30
2022-09-15T20:44:09.134Z,868.53
2022-09-15T20:46:36.379Z,832.00
2022-09-15T20:49:03.738Z,859.97
2022-09-15T20:51:32.378Z,855.38
2022-09-15T20:54:00.487Z,869.45
2022-09-15T20:56:29.040Z,821.05
2022-09-15T20:58:58.385Z,830.97
2022-09-15T21:01:27.339Z,856.22
2022-09-15T21:03:56.255Z,858.00
2022-09-15T21:06:24.948Z,850.20
2022-09-15T21:08:52.990Z,855.85
2022-09-15T21:11:21.251Z,860.63
2022-09-15T21:13:49.202Z,846.42
2022-09-15T21:16:18.452Z,869.35
2022-09-15T21:18:46.282Z,857.58
2022-09-15T21:21:24.506Z,853.83
2022-09-15T21:23:56.484Z,885.15
2022-09-15T21:26:25.180Z,868.97
2022-09-15T21:28:52.838Z,862.72
2022-09-15T21:31:22.166Z,867.88
2022-09-15T21:33:49.519Z,876.60
2022-09-15T21:36:22.191Z,876.70
2022-09-15T21:38:51.098Z,840.15
2022-09-15T21:41:23.411Z,886.55
2022-09-15T21:43:58.870Z,879.70
2022-09-15T21:46:28.109Z,878.95
2022-09-15T21:48:56.405Z,879.70
2022-09-15T21:51:25.148Z,871.33
2022-09-15T21:53:56.570Z,876.70
2022-09-15T21:56:24.667Z,868.35
2022-09-15T21:58:51.943Z,858.25
2022-09-15T22:01:25.630Z,894.13
2022-09-15T22:04:00.759Z,875.83
2022-09-15T22:06:32.474Z,905.25
2022-09-15T22:09:03.517Z,923.67
2022-09-15T22:11:30.949Z,912.33
2022-09-15T22:13:58.531Z,916.03
2022-09-15T22:16:26.192Z,924.25
2022-09-15T22:18:53.868Z,931.08
2022-09-15T22:21:23.197Z,929.92
2022-09-15T22:23:51.610Z,942.28
2022-09-15T22:26:21.046Z,937.50
2022-09-15T22:28:48.216Z,958.97
2022-09-15T22:31:17.374Z,962.50
2022-09-15T22:33:44.985Z,971.28
2022-09-15T22:36:17.623Z,996.17
2022-09-15T22:38:44.810Z,1006.47
2022-09-15T22:41:13.347Z,1008.92
2022-09-15T22:43:41.650Z,957.80
2022-09-15T22:46:10.142Z,1006.20
2022-09-15T22:48:42.451Z,981.67
2022-09-15T22:51:11.089Z,992.80
2022-09-15T22:53:38.564Z,1116.25
2022-09-15T22:56:11.447Z,1104.57
2022-09-15T22:58:38.624Z,1091.55
2022-09-15T23:01:09.516Z,1105.78
2022-09-15T23:03:38.262Z,1130.10
2022-09-15T23:06:05.884Z,1096.72
2022-09-15T23:08:33.215Z,1114.85
2022-09-15T23:11:05.942Z,1147.55
2022-09-15T23:13:33.571Z,1148.50
2022-09-15T23:16:00.982Z,1157.63
2022-09-15T23:18:29.059Z,1133.93
2022-09-15T23:21:08.388Z,1125.93
2022-09-15T23:23:37.389Z,1155.43
2022-09-15T23:26:06.731Z,1146.28
2022-09-15T23:28:34.260Z,1123.20
2022-09-15T23:31:01.480Z,1105.53
2022-09-15T23:33:29.856Z,1068.13
2022-09-15T23:35:59.186Z,1085.88
2022-09-15T23:38:26.294Z,1105.68
2022-09-15T23:40:53.459Z,1061.20
2022-09-15T23:43:20.598Z,1060.90
2022-09-15T23:45:48.140Z,1066.22
2022-09-15T23:48:15.466Z,1062.38
2022-09-15T23:50:43.932Z,1067.65
2022-09-15T23:53:11.330Z,1055.18
2022-09-15T23:55:39.948Z,1105.00
2022-09-15T23:58:08.169Z,1109.82
